createdAt,value
2023-02-26T00:00:36.153Z,100.00
2023-02-26T00:03:08.634Z,100.00
2023-02-26T00:05:21.414Z,100.00
2023-02-26T00:07:34.971Z,100.00
2023-02-26T00:09:47.625Z,100.00
2023-02-26T00:12:00.986Z,100.00
2023-02-26T00:14:15.548Z,100.00
2023-02-26T00:16:30.199Z,100.00
2023-02-26T00:18:42.969Z,100.00
2023-02-26T00:20:55.979Z,100.00
2023-02-26T00:23:14.200Z,100.00
2023-02-26T00:25:26.749Z,100.00
2023-02-26T00:27:39.643Z,100.00
2023-02-26T00:29:52.717Z,100.00
2023-02-26T00:32:05.632Z,100.00
2023-02-26T00:34:18.585Z,100.00
2023-02-26T00:36:49.088Z,100.00
2023-02-26T00:39:07.720Z,100.00
2023-02-26T00:41:20.636Z,100.00
2023-02-26T00:43:33.506Z,100.00
2023-02-26T00:46:25.186Z,100.00
2023-02-26T00:48:58.284Z,100.00
2023-02-26T00:51:23.490Z,100.00
2023-02-26T00:53:47.764Z,100.00
2023-02-26T00:56:00.254Z,100.00
2023-02-26T00:58:12.930Z,100.00
2023-02-26T01:00:25.574Z,100.00
2023-02-26T01:02:39.749Z,100.00
2023-02-26T01:04:52.665Z,100.00
2023-02-26T01:07:05.394Z,100.00
2023-02-26T01:09:35.359Z,100.00
2023-02-26T01:11:48.592Z,100.00
2023-02-26T01:14:02.049Z,100.00
2023-02-26T01:16:23.718Z,100.00
2023-02-26T01:18:47.069Z,100.00
2023-02-26T01:21:08.819Z,100.00
2023-02-26T01:23:25.912Z,100.00
2023-02-26T01:25:47.434Z,100.00
2023-02-26T01:28:00.120Z,100.00
2023-02-26T01:30:13.379Z,100.00
2023-02-26T01:32:44.703Z,100.00
2023-02-26T01:35:09.605Z,100.00
2023-02-26T01:37:46.675Z,100.00
2023-02-26T01:40:25.010Z,100.00
2023-02-26T01:42:42.732Z,100.00
2023-02-26T01:45:10.837Z,100.00
2023-02-26T01:47:33.570Z,100.00
2023-02-26T01:49:46.500Z,100.00
2023-02-26T01:52:05.832Z,100.00
2023-02-26T01:54:24.639Z,100.00
2023-02-26T01:56:38.492Z,100.00
2023-02-26T01:58:51.123Z,100.00
2023-02-26T02:01:04.643Z,100.00
2023-02-26T02:03:17.346Z,100.00
2023-02-26T02:05:43.483Z,100.00
2023-02-26T02:07:57.338Z,100.00
2023-02-26T02:10:10.610Z,100.00
2023-02-26T02:12:38.069Z,100.00
2023-02-26T02:14:56.647Z,100.00
2023-02-26T02:17:41.264Z,100.00
2023-02-26T02:20:24.698Z,100.00
2023-02-26T02:22:59.705Z,100.00
2023-02-26T02:25:45.551Z,100.00
2023-02-26T02:28:21.705Z,100.00
2023-02-26T02:31:18.946Z,100.00
2023-02-26T02:33:37.447Z,100.00
2023-02-26T02:35:59.287Z,100.00
2023-02-26T02:38:18.944Z,100.00
2023-02-26T02:40:41.543Z,100.00
2023-02-26T02:43:03.182Z,100.00
2023-02-26T02:45:47.134Z,100.00
2023-02-26T02:48:05.619Z,100.00
2023-02-26T02:50:28.131Z,100.00
2023-02-26T02:52:52.996Z,100.00
2023-02-26T02:55:12.148Z,100.00
2023-02-26T02:57:32.289Z,100.00
2023-02-26T02:59:52.093Z,100.00
2023-02-26T03:02:21.727Z,100.00
2023-02-26T03:04:35.210Z,100.00
2023-02-26T03:06:49.963Z,100.00
2023-02-26T03:09:04.535Z,100.00
2023-02-26T03:11:17.153Z,100.00
2023-02-26T03:13:29.881Z,100.00
2023-02-26T03:16:06.064Z,100.00
2023-02-26T03:18:32.943Z,100.00
2023-02-26T03:21:28.910Z,100.00
2023-02-26T03:24:14.535Z,100.00
2023-02-26T03:26:42.802Z,100.00
2023-02-26T03:29:19.808Z,100.00
2023-02-26T03:32:00.054Z,100.00
2023-02-26T03:34:21.656Z,100.00
2023-02-26T03:36:59.437Z,100.00
2023-02-26T03:39:22.512Z,100.00
2023-02-26T03:41:48.028Z,100.00
2023-02-26T03:44:06.902Z,100.00
2023-02-26T03:46:25.640Z,100.00
2023-02-26T03:48:38.531Z,100.00
2023-02-26T03:50:55.143Z,100.00
2023-02-26T03:53:12.332Z,100.00
2023-02-26T03:55:37.667Z,100.00
2023-02-26T03:57:50.392Z,100.00
2023-02-26T04:00:04.709Z,100.00
2023-02-26T04:02:22.659Z,100.00
2023-02-26T04:05:05.517Z,100.00
2023-02-26T04:07:19.640Z,100.00
2023-02-26T04:09:32.320Z,100.00
2023-02-26T04:11:46.132Z,100.00
2023-02-26T04:13:59.083Z,100.00
2023-02-26T04:16:11.941Z,100.00
2023-02-26T04:18:24.639Z,100.00
2023-02-26T04:20:37.248Z,100.00
2023-02-26T04:22:49.793Z,100.00
2023-02-26T04:25:02.357Z,100.00
2023-02-26T04:27:14.950Z,100.00
2023-02-26T04:29:27.636Z,100.00
2023-02-26T04:31:40.277Z,100.00
2023-02-26T04:33:52.825Z,100.00
2023-02-26T04:36:05.723Z,100.00
2023-02-26T04:38:18.307Z,100.00
2023-02-26T04:40:31.433Z,100.00
2023-02-26T04:42:45.817Z,100.00
2023-02-26T04:44:59.594Z,100.00
2023-02-26T04:47:12.137Z,100.00
2023-02-26T04:49:24.777Z,100.00
2023-02-26T04:51:37.388Z,100.00
2023-02-26T04:53:49.974Z,99.99
2023-02-26T04:56:02.576Z,100.00
2023-02-26T04:58:15.524Z,100.00
2023-02-26T05:00:28.322Z,99.94
2023-02-26T05:02:41.322Z,99.74
2023-02-26T05:04:53.960Z,99.77
2023-02-26T05:07:06.535Z,99.48
2023-02-26T05:09:19.187Z,99.30
2023-02-26T05:11:31.794Z,99.12
2023-02-26T05:13:44.618Z,99.19
2023-02-26T05:15:57.202Z,99.14
2023-02-26T05:18:09.999Z,99.29
2023-02-26T05:20:22.698Z,99.11
2023-02-26T05:22:35.754Z,98.97
2023-02-26T05:24:48.455Z,98.88
2023-02-26T05:27:00.995Z,98.81
2023-02-26T05:29:13.532Z,98.85
2023-02-26T05:31:26.971Z,98.69
2023-02-26T05:33:39.608Z,98.73
2023-02-26T05:35:52.540Z,98.50
2023-02-26T05:38:05.108Z,98.39
2023-02-26T05:40:17.854Z,98.36
2023-02-26T05:42:30.466Z,98.24
2023-02-26T05:44:43.024Z,98.08
2023-02-26T05:46:55.688Z,98.21
2023-02-26T05:49:08.456Z,98.18
2023-02-26T05:51:21.184Z,98.19
2023-02-26T05:53:33.770Z,98.11
2023-02-26T05:55:46.454Z,97.98
2023-02-26T05:57:59.053Z,98.09
2023-02-26T06:00:12.824Z,98.05
2023-02-26T06:02:25.644Z,98.08
2023-02-26T06:04:38.306Z,98.00
2023-02-26T06:06:50.896Z,97.98
2023-02-26T06:09:03.544Z,97.85
2023-02-26T06:11:16.122Z,97.99
2023-02-26T06:13:28.698Z,98.02
2023-02-26T06:15:41.303Z,97.84
2023-02-26T06:17:53.887Z,98.03
2023-02-26T06:20:06.809Z,98.07
2023-02-26T06:22:19.996Z,98.08
2023-02-26T06:24:32.681Z,98.04
2023-02-26T06:26:45.234Z,98.20
2023-02-26T06:28:57.909Z,98.09
2023-02-26T06:31:10.899Z,98.08
2023-02-26T06:33:24.134Z,98.19
2023-02-26T06:35:37.207Z,97.90
2023-02-26T06:37:50.234Z,97.96
2023-02-26T06:40:04.252Z,97.99
2023-02-26T06:42:19.028Z,97.54
2023-02-26T06:44:32.554Z,97.32
2023-02-26T06:46:45.144Z,97.21
2023-02-26T06:48:57.682Z,97.26
2023-02-26T06:51:10.249Z,96.80
2023-02-26T06:53:23.406Z,96.69
2023-02-26T06:55:36.032Z,96.46
2023-02-26T06:57:48.579Z,96.25
2023-02-26T07:00:01.260Z,95.82
2023-02-26T07:02:17.810Z,95.55
2023-02-26T07:04:30.435Z,95.52
2023-02-26T07:06:43.162Z,95.45
2023-02-26T07:08:56.034Z,95.29
2023-02-26T07:11:09.968Z,95.23
2023-02-26T07:13:22.471Z,95.34
2023-02-26T07:15:35.052Z,95.29
2023-02-26T07:17:47.675Z,95.16
2023-02-26T07:20:06.269Z,94.86
2023-02-26T07:22:21.913Z,95.06
2023-02-26T07:24:34.813Z,95.07
2023-02-26T07:26:47.373Z,94.71
2023-02-26T07:28:59.907Z,94.64
2023-02-26T07:31:12.556Z,94.67
2023-02-26T07:33:26.513Z,94.68
2023-02-26T07:35:39.531Z,94.69
2023-02-26T07:37:52.253Z,94.52
2023-02-26T07:40:05.588Z,94.50
2023-02-26T07:42:18.376Z,94.42
2023-02-26T07:44:30.876Z,94.36
2023-02-26T07:46:43.500Z,94.41
2023-02-26T07:48:56.074Z,94.39
2023-02-26T07:51:10.988Z,94.13
2023-02-26T07:53:23.662Z,94.10
2023-02-26T07:55:36.319Z,93.94
2023-02-26T07:57:50.107Z,93.88
2023-02-26T08:00:02.863Z,93.68
2023-02-26T08:02:15.372Z,93.74
2023-02-26T08:04:28.007Z,93.45
2023-02-26T08:06:40.672Z,93.60
2023-02-26T08:08:53.257Z,93.46
2023-02-26T08:11:05.844Z,93.10
2023-02-26T08:13:18.880Z,93.18
2023-02-26T08:15:31.395Z,92.99
2023-02-26T08:17:44.161Z,92.87
2023-02-26T08:19:56.668Z,92.73
2023-02-26T08:22:09.316Z,92.78
2023-02-26T08:24:22.503Z,92.49
2023-02-26T08:26:36.833Z,92.55
2023-02-26T08:28:50.553Z,92.49
2023-02-26T08:31:03.876Z,92.22
2023-02-26T08:33:16.526Z,92.37
2023-02-26T08:35:29.072Z,92.09
2023-02-26T08:37:41.678Z,91.70
2023-02-26T08:39:54.351Z,92.06
2023-02-26T08:42:08.642Z,92.08
2023-02-26T08:44:21.162Z,91.82
2023-02-26T08:46:34.197Z,92.02
2023-02-26T08:48:46.872Z,91.81
2023-02-26T08:50:59.478Z,91.83
2023-02-26T08:53:12.120Z,92.21
2023-02-26T08:55:24.921Z,91.74
2023-02-26T08:57:37.529Z,92.18
2023-02-26T08:59:50.023Z,91.68
2023-02-26T09:02:02.644Z,91.69
2023-02-26T09:04:15.463Z,91.44
2023-02-26T09:06:28.412Z,91.19
2023-02-26T09:08:41.078Z,90.95
2023-02-26T09:10:53.671Z,90.19
2023-02-26T09:13:06.283Z,90.64
2023-02-26T09:15:20.057Z,89.90
2023-02-26T09:17:34.042Z,89.99
2023-02-26T09:19:46.578Z,90.05
2023-02-26T09:21:59.150Z,89.82
2023-02-26T09:24:11.751Z,89.61
2023-02-26T09:26:24.794Z,89.44
2023-02-26T09:28:37.596Z,88.85
2023-02-26T09:30:54.358Z,88.97
2023-02-26T09:33:07.020Z,89.00
2023-02-26T09:35:19.626Z,88.50
2023-02-26T09:37:32.499Z,88.36
2023-02-26T09:39:45.219Z,87.87
2023-02-26T09:42:11.224Z,87.56
2023-02-26T09:44:36.484Z,87.67
2023-02-26T09:47:13.065Z,87.09
2023-02-26T09:49:32.954Z,87.54
2023-02-26T09:51:50.601Z,87.37
2023-02-26T09:54:14.839Z,86.88
2023-02-26T09:56:32.438Z,86.73
2023-02-26T09:58:45.803Z,86.69
2023-02-26T10:01:18.802Z,86.83
2023-02-26T10:03:41.833Z,86.57
2023-02-26T10:06:07.186Z,86.35
2023-02-26T10:08:22.396Z,86.30
2023-02-26T10:10:45.353Z,86.09
2023-02-26T10:13:00.609Z,85.74
2023-02-26T10:15:27.825Z,85.99
2023-02-26T10:18:00.055Z,85.68
2023-02-26T10:20:21.349Z,85.26
2023-02-26T10:22:47.168Z,85.53
2023-02-26T10:25:21.225Z,85.35
2023-02-26T10:27:59.161Z,85.06
2023-02-26T10:30:22.486Z,84.69
2023-02-26T10:32:41.255Z,84.39
2023-02-26T10:34:58.290Z,84.26
2023-02-26T10:37:43.793Z,84.39
2023-02-26T10:40:11.730Z,84.35
2023-02-26T10:42:32.617Z,84.54
2023-02-26T10:45:00.377Z,83.99
2023-02-26T10:47:37.408Z,83.83
2023-02-26T10:50:03.956Z,83.78
2023-02-26T10:52:24.643Z,83.66
2023-02-26T10:55:04.152Z,83.62
2023-02-26T10:57:47.607Z,82.85
2023-02-26T11:00:06.086Z,82.39
2023-02-26T11:02:32.599Z,81.74
2023-02-26T11:04:45.241Z,80.89
2023-02-26T11:07:00.689Z,80.77
2023-02-26T11:09:22.377Z,80.50
2023-02-26T11:11:45.797Z,80.02
2023-02-26T11:13:59.083Z,80.08
2023-02-26T11:16:15.489Z,80.17
2023-02-26T11:18:49.618Z,80.32
2023-02-26T11:21:05.423Z,80.08
2023-02-26T11:23:21.354Z,79.95
2023-02-26T11:25:36.114Z,79.74
2023-02-26T11:27:53.376Z,79.94
2023-02-26T11:30:18.561Z,80.02
2023-02-26T11:32:34.752Z,80.55
2023-02-26T11:34:51.435Z,80.60
2023-02-26T11:37:04.520Z,80.68
2023-02-26T11:39:30.282Z,80.71
2023-02-26T11:41:46.942Z,80.42
2023-02-26T11:44:06.828Z,80.10
2023-02-26T11:46:25.413Z,79.91
2023-02-26T11:48:43.210Z,79.35
2023-02-26T11:51:00.350Z,79.37
2023-02-26T11:53:31.131Z,78.18
2023-02-26T11:55:48.150Z,77.95
2023-02-26T11:58:00.837Z,76.46
2023-02-26T12:00:20.649Z,75.97
2023-02-26T12:02:37.137Z,75.00
2023-02-26T12:04:53.942Z,74.27
2023-02-26T12:07:11.549Z,74.62
2023-02-26T12:09:25.767Z,75.13
2023-02-26T12:11:56.642Z,75.51
2023-02-26T12:14:30.475Z,75.78
2023-02-26T12:17:00.741Z,76.08
2023-02-26T12:19:35.352Z,76.31
2023-02-26T12:22:29.872Z,76.58
2023-02-26T12:25:16.585Z,76.57
2023-02-26T12:27:46.256Z,76.57
2023-02-26T12:30:30.323Z,76.73
2023-02-26T12:32:45.885Z,77.01
2023-02-26T12:35:30.665Z,77.40
2023-02-26T12:37:59.644Z,77.18
2023-02-26T12:40:33.461Z,77.06
2023-02-26T12:42:59.688Z,77.28
2023-02-26T12:45:26.401Z,77.17
2023-02-26T12:47:48.572Z,77.22
2023-02-26T12:50:22.290Z,77.25
2023-02-26T12:52:58.481Z,76.92
2023-02-26T12:55:24.277Z,75.89
2023-02-26T12:57:58.552Z,75.85
2023-02-26T13:00:25.955Z,76.12
2023-02-26T13:02:57.957Z,75.40
2023-02-26T13:05:23.984Z,75.15
2023-02-26T13:07:55.086Z,73.88
2023-02-26T13:10:21.808Z,73.15
2023-02-26T13:12:48.157Z,74.50
2023-02-26T13:15:17.869Z,76.24
2023-02-26T13:18:02.996Z,77.68
2023-02-26T13:20:20.052Z,79.53
2023-02-26T13:22:39.471Z,79.62
2023-02-26T13:25:29.686Z,80.91
2023-02-26T13:27:44.711Z,81.35
2023-02-26T13:30:26.452Z,82.31
2023-02-26T13:32:42.622Z,82.68
2023-02-26T13:35:04.795Z,83.52
2023-02-26T13:37:24.063Z,84.43
2023-02-26T13:39:55.475Z,84.93
2023-02-26T13:42:38.017Z,85.36
2023-02-26T13:45:18.691Z,85.43
2023-02-26T13:47:46.501Z,85.49
2023-02-26T13:50:18.661Z,86.03
2023-02-26T13:52:34.589Z,86.31
2023-02-26T13:54:48.788Z,86.35
2023-02-26T13:57:37.325Z,86.44
2023-02-26T13:59:54.480Z,86.53
2023-02-26T14:02:19.261Z,86.88
2023-02-26T14:04:49.344Z,86.85
2023-02-26T14:07:15.967Z,86.65
2023-02-26T14:09:28.491Z,87.13
2023-02-26T14:12:01.206Z,87.27
2023-02-26T14:14:25.157Z,87.53
2023-02-26T14:16:41.428Z,87.54
2023-02-26T14:19:05.045Z,87.56
2023-02-26T14:21:26.957Z,86.83
2023-02-26T14:23:41.050Z,86.71
2023-02-26T14:25:54.901Z,86.64
2023-02-26T14:28:25.764Z,86.30
2023-02-26T14:30:46.538Z,86.28
2023-02-26T14:33:05.744Z,86.28
2023-02-26T14:35:28.067Z,86.89
2023-02-26T14:37:42.341Z,86.87
2023-02-26T14:40:09.037Z,87.21
2023-02-26T14:42:33.406Z,87.39
2023-02-26T14:44:54.381Z,87.44
2023-02-26T14:47:08.451Z,88.10
2023-02-26T14:49:27.859Z,88.17
2023-02-26T14:52:00.739Z,88.62
2023-02-26T14:54:25.603Z,89.30
2023-02-26T14:56:56.730Z,89.67
2023-02-26T14:59:46.423Z,89.85
2023-02-26T15:02:14.428Z,90.22
2023-02-26T15:04:44.975Z,90.64
2023-02-26T15:07:41.013Z,90.80
2023-02-26T15:10:14.002Z,91.35
2023-02-26T15:12:29.234Z,91.65
2023-02-26T15:14:59.167Z,92.01
2023-02-26T15:17:29.002Z,91.96
2023-02-26T15:20:09.332Z,91.93
2023-02-26T15:22:27.958Z,91.69
2023-02-26T15:24:41.040Z,91.70
2023-02-26T15:27:00.117Z,91.43
2023-02-26T15:29:14.610Z,91.33
2023-02-26T15:31:42.786Z,90.90
2023-02-26T15:33:57.045Z,91.10
2023-02-26T15:36:14.218Z,90.94
2023-02-26T15:38:27.709Z,91.03
2023-02-26T15:40:40.719Z,91.19
2023-02-26T15:42:56.360Z,91.00
2023-02-26T15:45:36.069Z,91.15
2023-02-26T15:47:55.291Z,90.83
2023-02-26T15:50:10.013Z,90.67
2023-02-26T15:52:25.426Z,90.84
2023-02-26T15:54:44.744Z,90.57
2023-02-26T15:56:57.351Z,90.41
2023-02-26T15:59:14.135Z,90.35
2023-02-26T16:01:28.799Z,90.39
2023-02-26T16:03:41.431Z,90.21
2023-02-26T16:05:55.811Z,90.49
2023-02-26T16:08:14.121Z,90.27
2023-02-26T16:10:32.861Z,90.07
2023-02-26T16:12:49.103Z,89.79
2023-02-26T16:15:07.025Z,90.01
2023-02-26T16:17:30.532Z,90.16
2023-02-26T16:19:48.860Z,90.05
2023-02-26T16:22:07.385Z,89.66
2023-02-26T16:24:23.095Z,89.71
2023-02-26T16:26:44.671Z,90.00
2023-02-26T16:29:04.367Z,89.92
2023-02-26T16:31:22.700Z,89.91
2023-02-26T16:33:35.480Z,90.10
2023-02-26T16:35:53.109Z,90.19
2023-02-26T16:38:17.130Z,90.47
2023-02-26T16:40:36.819Z,90.48
2023-02-26T16:43:24.751Z,90.44
2023-02-26T16:45:37.259Z,90.65
2023-02-26T16:47:55.449Z,91.00
2023-02-26T16:50:18.382Z,91.02
2023-02-26T16:52:31.596Z,91.06
2023-02-26T16:54:52.699Z,91.21
2023-02-26T16:57:17.281Z,91.27
2023-02-26T16:59:32.602Z,91.22
2023-02-26T17:02:01.869Z,91.29
2023-02-26T17:04:17.346Z,91.24
2023-02-26T17:06:35.701Z,91.38
2023-02-26T17:08:53.921Z,91.56
2023-02-26T17:11:08.825Z,91.44
2023-02-26T17:13:28.253Z,91.43
2023-02-26T17:15:41.227Z,91.62
2023-02-26T17:17:56.869Z,91.54
2023-02-26T17:20:11.220Z,91.28
2023-02-26T17:22:27.379Z,91.40
2023-02-26T17:24:41.765Z,91.63
2023-02-26T17:26:55.297Z,91.53
2023-02-26T17:29:17.529Z,91.46
2023-02-26T17:31:30.190Z,91.65
2023-02-26T17:33:44.741Z,91.73
2023-02-26T17:36:00.592Z,91.63
2023-02-26T17:38:15.863Z,91.52
2023-02-26T17:40:36.416Z,91.86
2023-02-26T17:42:50.160Z,91.80
2023-02-26T17:45:02.888Z,91.84
2023-02-26T17:47:18.609Z,91.80
2023-02-26T17:49:31.165Z,91.90
2023-02-26T17:51:43.773Z,91.98
2023-02-26T17:53:56.349Z,91.92
2023-02-26T17:56:12.592Z,91.97
2023-02-26T17:58:32.379Z,91.76
2023-02-26T18:00:49.508Z,91.80
2023-02-26T18:03:03.539Z,91.86
2023-02-26T18:05:16.281Z,91.72
2023-02-26T18:07:28.836Z,91.95
2023-02-26T18:09:41.410Z,91.91
2023-02-26T18:11:54.129Z,92.01
2023-02-26T18:14:06.953Z,91.98
2023-02-26T18:16:22.918Z,91.77
2023-02-26T18:18:35.626Z,91.67
2023-02-26T18:20:48.682Z,91.56
2023-02-26T18:23:01.397Z,91.60
2023-02-26T18:25:15.166Z,91.54
2023-02-26T18:27:27.920Z,91.44
2023-02-26T18:29:40.757Z,91.37
2023-02-26T18:31:53.502Z,91.33
2023-02-26T18:34:06.148Z,91.34
2023-02-26T18:36:34.181Z,91.29
2023-02-26T18:38:47.006Z,91.30
2023-02-26T18:41:02.094Z,91.20
2023-02-26T18:43:15.250Z,91.35
2023-02-26T18:45:27.835Z,91.34
2023-02-26T18:47:41.052Z,91.27
2023-02-26T18:49:53.613Z,91.37
2023-02-26T18:52:06.153Z,91.45
2023-02-26T18:54:18.681Z,91.45
2023-02-26T18:56:31.236Z,91.54
2023-02-26T18:58:43.800Z,91.38
2023-02-26T19:00:56.856Z,91.46
2023-02-26T19:03:09.479Z,91.28
2023-02-26T19:05:24.563Z,91.39
2023-02-26T19:07:37.223Z,91.35
2023-02-26T19:09:49.848Z,91.30
2023-02-26T19:12:03.060Z,91.31
2023-02-26T19:14:16.172Z,91.50
2023-02-26T19:16:30.996Z,91.37
2023-02-26T19:18:43.649Z,91.26
2023-02-26T19:20:56.735Z,91.12
2023-02-26T19:23:09.706Z,91.23
2023-02-26T19:25:23.717Z,91.17
2023-02-26T19:27:37.320Z,91.19
2023-02-26T19:29:49.907Z,90.88
2023-02-26T19:32:04.532Z,91.06
2023-02-26T19:34:17.383Z,91.09
2023-02-26T19:36:33.499Z,90.90
2023-02-26T19:38:47.542Z,90.86
2023-02-26T19:41:00.596Z,91.02
2023-02-26T19:43:13.097Z,90.92
2023-02-26T19:45:25.666Z,90.84
2023-02-26T19:47:39.063Z,90.90
2023-02-26T19:49:51.751Z,90.83
2023-02-26T19:52:04.404Z,90.83
2023-02-26T19:54:17.194Z,90.53
2023-02-26T19:56:29.874Z,90.75
2023-02-26T19:58:43.494Z,90.53
2023-02-26T20:00:58.011Z,90.63
2023-02-26T20:03:10.779Z,90.46
2023-02-26T20:05:23.428Z,90.30
2023-02-26T20:07:36.171Z,90.28
2023-02-26T20:09:49.739Z,90.22
2023-02-26T20:12:02.472Z,90.23
2023-02-26T20:14:15.171Z,90.26
2023-02-26T20:16:27.946Z,90.19
2023-02-26T20:18:40.800Z,90.12
2023-02-26T20:20:53.646Z,90.42
2023-02-26T20:23:06.253Z,90.53
2023-02-26T20:25:19.847Z,90.69
2023-02-26T20:27:32.875Z,90.75
2023-02-26T20:29:45.856Z,90.86
2023-02-26T20:31:59.175Z,90.85
2023-02-26T20:34:12.249Z,90.80
2023-02-26T20:36:24.806Z,90.69
2023-02-26T20:38:37.480Z,90.58
2023-02-26T20:40:50.239Z,90.77
2023-02-26T20:43:02.772Z,90.53
2023-02-26T20:45:15.350Z,90.56
2023-02-26T20:47:28.038Z,90.48
2023-02-26T20:49:40.642Z,90.35
2023-02-26T20:51:54.479Z,90.24
2023-02-26T20:54:07.384Z,90.10
2023-02-26T20:56:19.982Z,90.14
2023-02-26T20:58:32.880Z,90.04
2023-02-26T21:00:45.457Z,89.90
2023-02-26T21:02:58.275Z,89.66
2023-02-26T21:05:12.937Z,89.56
2023-02-26T21:07:25.489Z,89.39
2023-02-26T21:09:39.642Z,89.31
2023-02-26T21:11:52.504Z,89.28
2023-02-26T21:14:07.422Z,89.09
2023-02-26T21:16:20.577Z,88.89
2023-02-26T21:18:34.062Z,88.94
2023-02-26T21:20:49.656Z,88.90
2023-02-26T21:23:02.232Z,88.49
2023-02-26T21:25:14.896Z,88.34
2023-02-26T21:27:27.537Z,88.30
2023-02-26T21:29:40.054Z,87.92
2023-02-26T21:31:53.693Z,87.75
2023-02-26T21:34:30.225Z,87.73
2023-02-26T21:36:38.923Z,87.41
2023-02-26T21:38:51.488Z,87.25
2023-02-26T21:41:04.624Z,87.21
2023-02-26T21:43:17.196Z,87.13
2023-02-26T21:45:48.861Z,87.00
2023-02-26T21:48:03.563Z,87.08
2023-02-26T21:50:16.451Z,86.76
2023-02-26T21:52:29.137Z,86.82
2023-02-26T21:54:41.888Z,86.65
2023-02-26T21:56:54.713Z,86.68
2023-02-26T21:59:07.534Z,86.73
2023-02-26T22:01:20.194Z,86.45
2023-02-26T22:03:32.848Z,86.28
2023-02-26T22:05:45.464Z,86.09
2023-02-26T22:07:57.984Z,86.28
2023-02-26T22:10:12.619Z,86.14
2023-02-26T22:12:25.892Z,86.18
2023-02-26T22:14:38.520Z,86.12
2023-02-26T22:16:51.208Z,86.40
2023-02-26T22:19:04.069Z,86.27
2023-02-26T22:21:16.815Z,86.29
2023-02-26T22:23:29.390Z,86.45
2023-02-26T22:25:42.030Z,86.45
2023-02-26T22:27:54.584Z,86.50
2023-02-26T22:30:08.249Z,86.60
2023-02-26T22:32:20.862Z,86.57
2023-02-26T22:34:34.176Z,86.52
2023-02-26T22:36:46.748Z,86.73
2023-02-26T22:38:59.336Z,86.84
2023-02-26T22:41:11.923Z,86.80
2023-02-26T22:43:24.520Z,86.61
2023-02-26T22:45:37.081Z,86.68
2023-02-26T22:47:50.485Z,86.76
2023-02-26T22:50:03.670Z,86.98
2023-02-26T22:52:16.282Z,86.66
2023-02-26T22:54:28.991Z,86.61
2023-02-26T22:56:41.528Z,86.87
2023-02-26T22:58:54.495Z,86.93
2023-02-26T23:01:08.104Z,87.07
2023-02-26T23:03:20.693Z,86.94
2023-02-26T23:05:33.297Z,87.14
2023-02-26T23:07:46.228Z,87.00
2023-02-26T23:09:58.792Z,87.00
2023-02-26T23:12:11.536Z,86.94
2023-02-26T23:14:24.237Z,86.81
2023-02-26T23:16:36.762Z,86.87
2023-02-26T23:18:49.672Z,86.74
2023-02-26T23:21:02.824Z,86.73
2023-02-26T23:23:16.284Z,86.72
2023-02-26T23:25:28.938Z,86.64
2023-02-26T23:27:41.709Z,86.34
2023-02-26T23:29:54.303Z,86.56
2023-02-26T23:32:07.000Z,86.40
2023-02-26T23:34:19.584Z,86.39
2023-02-26T23:36:32.253Z,86.28
2023-02-26T23:38:44.795Z,86.33
2023-02-26T23:40:57.352Z,86.26
2023-02-26T23:43:09.942Z,86.13
2023-02-26T23:45:24.152Z,85.95
2023-02-26T23:47:37.491Z,85.95
2023-02-26T23:49:50.101Z,85.82
2023-02-26T23:52:02.704Z,85.77
2023-02-26T23:54:15.297Z,85.65
2023-02-26T23:56:27.910Z,85.52
2023-02-26T23:58:40.428Z,85.63
